createdAt,value
2023-04-15T00:00:11.488Z,4.43
2023-04-15T00:03:19.482Z,4.77
2023-04-15T00:06:23.434Z,4.10
2023-04-15T00:09:27.152Z,4.80
2023-04-15T00:12:30.740Z,5.10
2023-04-15T00:15:34.402Z,4.70
2023-04-15T00:18:39.729Z,5.17
2023-04-15T00:21:43.288Z,4.60
2023-04-15T00:24:46.785Z,4.60
2023-04-15T00:27:50.292Z,5.03
2023-04-15T00:30:53.963Z,4.40
2023-04-15T00:33:59.859Z,4.53
2023-04-15T00:37:03.351Z,5.00
2023-04-15T00:40:08.806Z,4.63
2023-04-15T00:43:12.316Z,5.03
2023-04-15T00:46:17.805Z,5.37
2023-04-15T00:49:23.335Z,5.07
2023-04-15T00:52:27.726Z,5.30
2023-04-15T00:55:31.510Z,5.57
2023-04-15T00:58:35.088Z,4.70
2023-04-15T01:01:39.567Z,4.37
2023-04-15T01:04:44.769Z,4.93
2023-04-15T01:07:49.125Z,4.80
2023-04-15T01:10:52.654Z,5.17
2023-04-15T01:13:57.657Z,5.30
2023-04-15T01:17:01.494Z,4.77
2023-04-15T01:20:10.322Z,5.27
2023-04-15T01:23:14.715Z,4.97
2023-04-15T01:26:19.937Z,5.10
2023-04-15T01:29:23.994Z,5.20
2023-04-15T01:32:27.698Z,4.47
2023-04-15T01:35:31.202Z,4.70
2023-04-15T01:38:34.976Z,4.77
2023-04-15T01:41:40.541Z,4.73
2023-04-15T01:44:44.080Z,4.60
2023-04-15T01:47:49.533Z,4.33
2023-04-15T01:50:53.907Z,4.10
2023-04-15T01:53:57.949Z,4.13
2023-04-15T01:57:03.916Z,3.83
2023-04-15T02:00:09.137Z,3.63
2023-04-15T02:03:19.443Z,3.97
2023-04-15T02:06:22.957Z,4.13
2023-04-15T02:09:26.570Z,3.77
2023-04-15T02:12:31.469Z,3.10
2023-04-15T02:15:35.265Z,3.20
2023-04-15T02:18:38.765Z,3.10
2023-04-15T02:21:42.544Z,3.07
2023-04-15T02:24:47.211Z,3.20
2023-04-15T02:27:52.196Z,2.83
2023-04-15T02:30:57.793Z,3.10
2023-04-15T02:34:03.208Z,3.03
2023-04-15T02:37:07.830Z,3.03
2023-04-15T02:40:13.493Z,3.00
2023-04-15T02:43:19.036Z,2.70
2023-04-15T02:46:23.212Z,2.80
2023-04-15T02:49:27.012Z,2.83
2023-04-15T02:52:30.598Z,3.00
2023-04-15T02:55:34.184Z,2.70
2023-04-15T02:58:39.438Z,2.43
2023-04-15T03:01:43.245Z,2.60
2023-04-15T03:04:46.793Z,2.50
2023-04-15T03:07:50.316Z,2.63
2023-04-15T03:10:54.568Z,2.37
2023-04-15T03:14:00.937Z,2.50
2023-04-15T03:17:09.622Z,2.30
2023-04-15T03:20:15.856Z,2.50
2023-04-15T03:23:19.959Z,2.67
2023-04-15T03:26:28.479Z,2.57
2023-04-15T03:29:37.148Z,2.83
2023-04-15T03:32:41.343Z,2.80
2023-04-15T03:35:45.639Z,2.73
2023-04-15T03:38:49.596Z,2.27
2023-04-15T03:41:53.121Z,2.83
2023-04-15T03:44:58.136Z,2.90
2023-04-15T03:51:08.070Z,2.53
2023-04-15T03:54:11.883Z,2.87
2023-04-15T03:57:15.389Z,2.57
2023-04-15T04:00:20.938Z,2.90
2023-04-15T04:03:24.611Z,2.90
2023-04-15T04:06:28.436Z,3.07
2023-04-15T04:09:31.934Z,2.60
2023-04-15T04:12:35.329Z,2.80
2023-04-15T04:15:40.282Z,2.57
2023-04-15T04:18:43.877Z,2.80
2023-04-15T04:21:47.523Z,3.07
2023-04-15T04:24:51.157Z,2.90
2023-04-15T04:27:54.597Z,3.00
2023-04-15T04:30:59.561Z,2.37
2023-04-15T04:34:03.124Z,2.87
2023-04-15T04:37:07.134Z,2.37
2023-04-15T04:40:11.762Z,2.53
2023-04-15T04:43:16.169Z,2.40
2023-04-15T04:46:21.917Z,2.50
2023-04-15T04:49:25.751Z,2.40
2023-04-15T04:52:29.336Z,2.43
2023-04-15T04:55:33.320Z,3.10
2023-04-15T04:58:36.864Z,2.77
2023-04-15T05:01:42.186Z,2.90
2023-04-15T05:04:45.683Z,3.10
2023-04-15T05:07:50.527Z,2.37
2023-04-15T05:10:54.022Z,2.63
2023-04-15T05:13:58.340Z,2.60
2023-04-15T05:17:03.627Z,2.40
2023-04-15T05:20:08.513Z,3.20
2023-04-15T05:23:12.358Z,2.50
2023-04-15T05:26:16.135Z,3.10
2023-04-15T05:29:19.795Z,2.70
2023-04-15T05:32:25.020Z,2.90
2023-04-15T05:35:28.969Z,3.30
2023-04-15T05:38:32.772Z,2.77
2023-04-15T05:41:36.468Z,2.80
2023-04-15T05:44:40.110Z,2.47
2023-04-15T05:47:45.254Z,2.50
2023-04-15T05:50:49.105Z,2.60
2023-04-15T05:53:52.818Z,2.00
2023-04-15T05:56:56.643Z,2.43
2023-04-15T06:00:00.238Z,2.20
2023-04-15T06:03:06.584Z,2.23
2023-04-15T06:06:10.348Z,2.30
2023-04-15T06:09:14.066Z,2.37
2023-04-15T06:12:17.773Z,2.07
2023-04-15T06:15:21.520Z,2.10
2023-04-15T06:18:26.790Z,2.17
2023-04-15T06:21:31.506Z,2.17
2023-04-15T06:24:37.268Z,2.30
2023-04-15T06:27:41.668Z,2.30
2023-04-15T06:30:45.451Z,2.43
2023-04-15T06:33:52.263Z,1.97
2023-04-15T06:36:56.236Z,2.10
2023-04-15T06:39:59.992Z,2.10
2023-04-15T06:43:05.129Z,2.20
2023-04-15T06:46:08.850Z,2.00
2023-04-15T06:49:14.029Z,2.17
2023-04-15T06:52:18.062Z,2.00
2023-04-15T06:55:21.905Z,2.37
2023-04-15T06:58:25.809Z,2.50
2023-04-15T07:01:29.863Z,2.03
2023-04-15T07:04:35.412Z,2.33
2023-04-15T07:07:39.314Z,2.50
2023-04-15T07:10:43.183Z,2.70
2023-04-15T07:13:47.055Z,2.47
2023-04-15T07:16:50.942Z,3.10
2023-04-15T07:19:56.188Z,3.20
2023-04-15T07:23:00.008Z,2.77
2023-04-15T07:26:04.341Z,2.70
2023-04-15T07:29:08.122Z,2.60
2023-04-15T07:32:12.094Z,4.17
2023-04-15T07:35:17.276Z,3.80
2023-04-15T07:38:21.024Z,3.67
2023-04-15T07:41:25.978Z,4.73
2023-04-15T07:44:29.855Z,5.30
2023-04-15T07:47:33.688Z,5.00
2023-04-15T07:50:38.918Z,4.97
2023-04-15T07:53:42.861Z,4.40
2023-04-15T07:56:46.566Z,5.17
2023-04-15T07:59:50.510Z,5.60
2023-04-15T08:02:54.493Z,5.23
2023-04-15T08:06:00.143Z,4.53
2023-04-15T08:09:04.112Z,4.70
2023-04-15T08:12:09.739Z,3.57
2023-04-15T08:15:13.698Z,3.80
2023-04-15T08:18:17.519Z,4.23
2023-04-15T08:21:23.077Z,4.47
2023-04-15T08:24:27.700Z,3.50
2023-04-15T08:27:31.584Z,3.70
2023-04-15T08:30:35.443Z,3.10
2023-04-15T08:33:39.263Z,3.10
2023-04-15T08:36:44.620Z,3.57
2023-04-15T08:39:48.836Z,4.50
2023-04-15T08:42:56.362Z,4.63
2023-04-15T08:46:01.919Z,4.43
2023-04-15T08:49:07.375Z,3.87
2023-04-15T08:52:12.994Z,3.57
2023-04-15T08:55:17.705Z,3.67
2023-04-15T08:58:21.602Z,3.87
2023-04-15T09:01:25.468Z,3.97
2023-04-15T09:04:30.399Z,4.17
2023-04-15T09:07:37.127Z,3.50
2023-04-15T09:10:41.249Z,4.80
2023-04-15T09:13:44.961Z,3.00
2023-04-15T09:17:02.341Z,3.08
2023-04-15T09:20:11.521Z,3.50
2023-04-15T09:23:17.946Z,2.80
2023-04-15T09:26:21.852Z,2.78
2023-04-15T09:29:27.336Z,3.45
2023-04-15T09:32:31.608Z,3.00
2023-04-15T09:35:35.851Z,3.25
2023-04-15T09:38:56.969Z,3.50
2023-04-15T09:42:09.983Z,2.80
2023-04-15T09:45:13.958Z,2.63
2023-04-15T09:48:21.142Z,2.67
2023-04-15T09:51:36.828Z,2.78
2023-04-15T09:54:42.037Z,2.72
2023-04-15T09:57:47.693Z,2.50
2023-04-15T10:00:52.718Z,2.47
2023-04-15T10:03:59.548Z,2.45
2023-04-15T10:07:06.724Z,2.30
2023-04-15T10:10:13.229Z,1.88
2023-04-15T10:13:19.888Z,2.10
2023-04-15T10:16:24.525Z,2.30
2023-04-15T10:19:31.616Z,2.25
2023-04-15T10:22:36.488Z,1.95
2023-04-15T10:25:42.358Z,3.25
2023-04-15T10:28:47.466Z,3.40
2023-04-15T10:31:51.754Z,3.50
2023-04-15T10:34:56.432Z,4.32
2023-04-15T10:38:00.548Z,5.35
2023-04-15T10:41:21.273Z,4.13
2023-04-15T10:44:25.636Z,4.70
2023-04-15T10:47:29.915Z,4.85
2023-04-15T10:50:34.264Z,5.10
2023-04-15T10:53:39.896Z,4.70
2023-04-15T10:56:45.812Z,4.38
2023-04-15T11:00:06.884Z,4.45
2023-04-15T11:03:12.356Z,4.30
2023-04-15T11:06:16.213Z,4.80
2023-04-15T11:09:34.015Z,4.43
2023-04-15T11:12:39.129Z,3.35
2023-04-15T11:15:45.253Z,3.13
2023-04-15T11:18:56.254Z,3.72
2023-04-15T11:22:07.766Z,3.40
2023-04-15T11:25:11.255Z,3.70
2023-04-15T11:28:16.354Z,3.72
2023-04-15T11:31:20.493Z,4.15
2023-04-15T11:34:25.020Z,4.20
2023-04-15T11:37:33.788Z,3.45
2023-04-15T11:40:37.721Z,3.85
2023-04-15T11:43:43.146Z,3.90
2023-04-15T11:46:46.665Z,3.20
2023-04-15T11:49:50.582Z,3.92
2023-04-15T11:52:55.382Z,3.25
2023-04-15T11:55:59.189Z,3.63
2023-04-15T11:59:04.933Z,3.58
2023-04-15T12:02:14.524Z,3.78
2023-04-15T12:05:18.445Z,3.55
2023-04-15T12:08:22.382Z,3.53
2023-04-15T12:11:40.618Z,2.97
2023-04-15T12:14:46.002Z,2.70
2023-04-15T12:17:51.839Z,2.50
2023-04-15T12:20:56.042Z,2.25
2023-04-15T12:24:03.884Z,2.20
2023-04-15T12:27:09.394Z,2.00
2023-04-15T12:30:15.255Z,2.20
2023-04-15T12:33:18.893Z,1.98
2023-04-15T12:36:22.597Z,2.22
2023-04-15T12:39:28.694Z,2.35
2023-04-15T12:42:34.284Z,1.98
2023-04-15T12:45:39.358Z,1.75
2023-04-15T12:48:43.179Z,1.85
2023-04-15T12:51:46.648Z,1.85
2023-04-15T12:54:50.448Z,1.75
2023-04-15T12:57:54.367Z,1.70
2023-04-15T13:00:59.699Z,1.83
2023-04-15T13:04:03.601Z,1.70
2023-04-15T13:07:07.602Z,2.30
2023-04-15T13:10:12.273Z,1.75
2023-04-15T13:13:16.008Z,1.77
2023-04-15T13:16:22.162Z,1.60
2023-04-15T13:19:25.924Z,1.67
2023-04-15T13:22:29.532Z,2.13
2023-04-15T13:25:33.200Z,1.85
2023-04-15T13:28:36.725Z,1.50
2023-04-15T13:31:41.816Z,1.77
2023-04-15T13:34:45.304Z,1.63
2023-04-15T13:37:49.133Z,2.10
2023-04-15T13:40:52.920Z,2.20
2023-04-15T13:43:56.840Z,2.10
2023-04-15T13:47:02.061Z,2.10
2023-04-15T13:50:06.481Z,1.90
2023-04-15T13:53:10.303Z,1.60
2023-04-15T13:56:14.794Z,1.70
2023-04-15T13:59:18.367Z,1.75
2023-04-15T14:02:24.614Z,1.90
2023-04-15T14:05:28.348Z,2.20
2023-04-15T14:08:31.938Z,1.83
2023-04-15T14:11:37.003Z,1.70
2023-04-15T14:14:40.691Z,1.80
2023-04-15T14:17:46.053Z,1.77
2023-04-15T14:20:49.869Z,1.83
2023-04-15T14:23:53.613Z,1.90
2023-04-15T14:26:57.982Z,1.80
2023-04-15T14:30:01.632Z,1.92
2023-04-15T14:33:07.044Z,2.00
2023-04-15T14:36:11.540Z,2.10
2023-04-15T14:39:16.122Z,1.88
2023-04-15T14:42:19.837Z,2.05
2023-04-15T14:45:23.632Z,1.90
2023-04-15T14:48:29.062Z,2.08
2023-04-15T14:51:33.268Z,2.08
2023-04-15T14:54:37.079Z,1.92
2023-04-15T14:57:41.374Z,1.85
2023-04-15T15:00:45.500Z,2.10
2023-04-15T15:03:51.436Z,2.08
2023-04-15T15:06:55.304Z,1.73
2023-04-15T15:09:59.126Z,1.85
2023-04-15T15:13:03.625Z,2.30
2023-04-15T15:16:08.104Z,2.05
2023-04-15T15:19:13.519Z,2.10
2023-04-15T15:22:19.440Z,2.47
2023-04-15T15:25:24.695Z,2.55
2023-04-15T15:28:28.917Z,2.88
2023-04-15T15:31:32.931Z,2.90
2023-04-15T15:34:38.297Z,2.50
2023-04-15T15:37:43.965Z,2.22
2023-04-15T15:40:47.682Z,3.08
2023-04-15T15:43:51.525Z,2.30
2023-04-15T15:46:55.312Z,2.45
2023-04-15T15:50:03.606Z,2.38
2023-04-15T15:53:08.966Z,2.50
2023-04-15T15:56:12.745Z,3.00
2023-04-15T15:59:16.458Z,2.97
2023-04-15T16:02:34.953Z,2.72
2023-04-15T16:05:47.358Z,3.33
2023-04-15T16:08:51.070Z,3.05
2023-04-15T16:11:54.865Z,3.20
2023-04-15T16:14:58.642Z,2.90
2023-04-15T16:18:02.514Z,3.63
2023-04-15T16:21:08.157Z,3.38
2023-04-15T16:24:12.160Z,3.20
2023-04-15T16:27:17.303Z,3.20
2023-04-15T16:30:22.178Z,3.20
2023-04-15T16:33:26.077Z,3.13
2023-04-15T16:36:31.940Z,3.10
2023-04-15T16:39:35.618Z,3.10
2023-04-15T16:42:40.142Z,3.60
2023-04-15T16:45:44.838Z,3.95
2023-04-15T16:48:48.500Z,3.80
2023-04-15T16:51:54.670Z,3.70
2023-04-15T16:54:58.576Z,3.30
2023-04-15T16:58:04.213Z,3.38
2023-04-15T17:01:09.728Z,3.65
2023-04-15T17:04:13.764Z,3.70
2023-04-15T17:07:19.143Z,3.53
2023-04-15T17:10:22.923Z,2.83
2023-04-15T17:13:27.475Z,3.27
2023-04-15T17:16:31.156Z,4.00
2023-04-15T17:19:34.875Z,4.27
2023-04-15T17:22:40.189Z,4.30
2023-04-15T17:25:43.841Z,4.00
2023-04-15T17:28:47.689Z,3.53
2023-04-15T17:31:51.408Z,3.50
2023-04-15T17:34:55.254Z,3.80
2023-04-15T17:38:00.330Z,4.53
2023-04-15T17:41:05.093Z,5.20
2023-04-15T17:44:08.751Z,4.70
2023-04-15T17:47:12.434Z,4.37
2023-04-15T17:50:16.278Z,4.60
2023-04-15T17:53:21.239Z,4.50
2023-04-15T17:56:25.360Z,4.77
2023-04-15T17:59:29.446Z,4.40
2023-04-15T18:02:35.432Z,4.17
2023-04-15T18:05:42.530Z,4.30
2023-04-15T18:08:47.989Z,3.70
2023-04-15T18:11:51.528Z,3.53
2023-04-15T18:14:55.308Z,3.40
2023-04-15T18:17:59.261Z,4.10
2023-04-15T18:21:03.270Z,3.87
2023-04-15T18:24:08.842Z,3.97
2023-04-15T18:27:12.551Z,4.40
2023-04-15T18:30:16.266Z,5.23
2023-04-15T18:33:19.921Z,4.60
2023-04-15T18:36:24.350Z,5.23
2023-04-15T18:39:29.639Z,4.93
2023-04-15T18:42:33.307Z,8.00
2023-04-15T18:45:37.184Z,7.67
2023-04-15T18:48:40.860Z,8.90
2023-04-15T18:51:44.512Z,7.23
2023-04-15T18:54:49.606Z,5.00
2023-04-15T18:57:53.425Z,3.70
2023-04-15T19:01:00.503Z,4.33
2023-04-15T19:04:04.352Z,3.77
2023-04-15T19:07:09.911Z,4.20
2023-04-15T19:10:15.195Z,5.30
2023-04-15T19:13:20.381Z,4.20
2023-04-15T19:16:24.163Z,4.23
2023-04-15T19:19:29.639Z,3.37
2023-04-15T19:22:33.399Z,3.53
2023-04-15T19:25:38.796Z,5.60
2023-04-15T19:28:42.411Z,5.23
2023-04-15T19:31:46.172Z,4.17
2023-04-15T19:34:50.212Z,4.07
2023-04-15T19:37:53.992Z,2.73
2023-04-15T19:40:59.023Z,3.43
2023-04-15T19:44:03.352Z,4.00
2023-04-15T19:47:07.000Z,2.53
2023-04-15T19:50:12.138Z,2.83
2023-04-15T19:53:15.981Z,2.43
2023-04-15T19:56:21.178Z,2.60
2023-04-15T19:59:24.787Z,2.60
2023-04-15T20:02:30.739Z,2.73
2023-04-15T20:05:34.433Z,2.57
2023-04-15T20:08:38.157Z,2.50
2023-04-15T20:12:45.605Z,2.60
2023-04-15T20:15:08.382Z,2.37
2023-04-15T20:18:11.966Z,2.30
2023-04-15T20:21:15.905Z,2.10
2023-04-15T20:24:20.437Z,2.07
2023-04-15T20:27:25.739Z,1.60
2023-04-15T20:30:29.956Z,2.53
2023-04-15T20:33:33.540Z,2.73
2023-04-15T20:36:37.367Z,2.60
2023-04-15T20:39:42.281Z,2.87
2023-04-15T20:42:47.455Z,3.03
2023-04-15T20:45:52.480Z,2.83
2023-04-15T20:48:56.534Z,2.53
2023-04-15T20:52:00.247Z,2.10
2023-04-15T20:55:04.026Z,5.03
2023-04-15T20:58:09.017Z,2.37
2023-04-15T21:01:12.977Z,2.27
2023-04-15T21:04:16.749Z,1.40
2023-04-15T21:07:20.267Z,1.80
2023-04-15T21:10:23.977Z,1.67
2023-04-15T21:13:29.118Z,1.83
2023-04-15T21:16:34.171Z,2.43
2023-04-15T21:19:38.572Z,4.80
2023-04-15T21:22:42.513Z,2.00
2023-04-15T21:25:46.016Z,1.80
2023-04-15T21:28:51.170Z,1.90
2023-04-15T21:31:54.852Z,1.63
2023-04-15T21:34:58.578Z,1.70
2023-04-15T21:38:02.393Z,2.00
2023-04-15T21:41:09.804Z,1.60
2023-04-15T21:44:15.195Z,2.17
2023-04-15T21:47:19.182Z,2.30
2023-04-15T21:50:24.233Z,1.67
2023-04-15T21:53:28.693Z,1.70
2023-04-15T21:56:32.426Z,1.63
2023-04-15T21:59:37.613Z,1.53
2023-04-15T22:02:41.653Z,1.97
2023-04-15T22:05:47.067Z,1.50
2023-04-15T22:08:56.994Z,1.83
2023-04-15T22:12:01.348Z,2.47
2023-04-15T22:15:07.405Z,1.60
2023-04-15T22:18:11.154Z,1.73
2023-04-15T22:21:15.270Z,1.50
2023-04-15T22:24:37.274Z,1.57
2023-04-15T22:27:42.437Z,1.40
2023-04-15T22:30:47.430Z,1.60
2023-04-15T22:33:50.895Z,1.73
2023-04-15T22:36:54.681Z,1.70
2023-04-15T22:39:58.197Z,1.57
2023-04-15T22:43:01.775Z,1.50
2023-04-15T22:46:06.916Z,1.63
2023-04-15T22:49:11.148Z,1.80
2023-04-15T22:52:27.207Z,1.53
2023-04-15T22:55:33.797Z,1.40
2023-04-15T22:58:37.344Z,1.57
2023-04-15T23:01:42.346Z,1.70
2023-04-15T23:04:46.241Z,3.90
2023-04-15T23:07:49.759Z,2.77
2023-04-15T23:10:53.305Z,2.00
2023-04-15T23:13:57.031Z,1.90
2023-04-15T23:17:02.161Z,1.50
2023-04-15T23:20:06.617Z,1.60
2023-04-15T23:23:10.288Z,1.93
2023-04-15T23:26:13.801Z,1.63
2023-04-15T23:29:17.364Z,1.60
2023-04-15T23:32:22.407Z,1.20
2023-04-15T23:35:26.126Z,1.70
2023-04-15T23:38:29.603Z,2.00
2023-04-15T23:41:33.109Z,1.93
2023-04-15T23:44:38.480Z,1.97
2023-04-15T23:47:43.497Z,1.70
2023-04-15T23:50:47.056Z,1.50
2023-04-15T23:53:52.475Z,1.80
2023-04-15T23:56:56.046Z,1.70
